Terminal Aerodrome Forecast
Issued by NWS Greer, SC

Current Version | Previous Version | Text Only | Print | Product List | Glossary On
Versions: 1 2 3 4 5 6 7 8 9 10 11 12 13 14 15 16 17 18 19 20 21 22 23 24 25 26 27 28 29 30 31 32 33
000
FTUS42 KGSP 221100
TAFAVL
TAF
KAVL 221129Z 2212/2312 34003KT P6SM FEW120 BKN250
     FM221500 34007KT P6SM FEW050 BKN250
     FM222200 29003KT P6SM SCT060 PROB30 2222/2304 4SM TSRA BKN040CB
     FM230400 32004KT P6SM BKN050
     FM230800 32004KT 5SM BR BKN045=

USA.gov is the U.S. government's official web portal to all federal, state and local government web resources and services.